Weather at Baltimore/Washington International Thurgood Marshall Airport

Public forecast

Using degrees Fahrenheit for public forecast. Weather courtesy of forecast.io.

Current aviation weather report (METAR) for Baltimore/Washington International Thurgood Marshall Airport

Retrieved 2021/11/27 12:54 UTC (48 minutes ago):

KBWI 271254Z 30009G20KT 10SM BKN045 BKN250 02/M08 A3002 RMK AO2 SLP166 T00171083

Aviation forecast (TAF) for Baltimore/Washington International Thurgood Marshall Airport

Retrieved 2021/11/27 12:42 UTC (60 minutes ago):

TAF KBWI 271139Z 2712/2818 29015G27KT P6SM BKN045 FM271600 30014G25KT P6SM FEW050 FM272100 28008KT P6SM SCT110 FM280000 25004KT P6SM BKN080 FM280600 VRB03KT P6SM OVC040 FM281600 24004KT P6SM FEW080